Weather observations for the past three days for
Muscatine
Imperial (Metric)
Date Time (cdt) Wind (mph) Vis. (mi.) Weather Sky Cond. Temperature (ºF) Relative Humidity Wind Chill (°F) Heat Index (°F) Pressure Precipitation (in)
Air Dwpt 6 hour altimeter (in) sea level (mb) 1 hr 3 hr 6 hr
Max. Min.
06 12:15 NW 16 10.00 Partly Cloudy SCT065 55.4 24.8 31% 30.04 0.0
06 11:55 NW 18 G 25 10.00 A Few Clouds FEW065 55.4 23 28% 30.04 0.0
06 11:35 W 15 G 22 10.00 Fair CLR 53.6 23 30% 30.04 0.0
06 11:15 NW 15 G 22 10.00 NULL NULL 53.6 23 30% 30.04 0.0
06 10:55 NW 10 G 20 10.00 NULL NULL 53.6 24.8 33% 30.04 0.0
06 10:35 NW 13 G 22 10.00 Fair CLR 53.6 24.8 33% 30.04 0.0
06 10:15 N 14 10.00 Fair CLR 51.8 24.8 35% 30.04 0.0
06 09:55 NW 14 10.00 Fair CLR 51.8 24.8 35% 30.03 0.0
06 09:35 N 16 10.00 Fair CLR 50 24.8 37% 45 30.03 0.0
06 09:15 N 14 G 20 10.00 Fair CLR 50 24.8 37% 45 30.03 0.0
06 08:55 N 14 10.00 Fair CLR 48.2 26.6 43% 43 30.03 0.0
06 08:35 N 13 10.00 Fair CLR 46.4 26.6 46% 41 30.02 0.0
06 08:15 NW 10 10.00 Fair CLR 46.4 28.4 50% 42 30.02 0.0
06 07:55 N 9 10.00 Fair CLR 44.6 28.4 53% 40 30.02 0.0
06 07:35 N 10 10.00 Fair CLR 44.6 28.4 53% 40 30.01 0.0
06 07:15 N 9 10.00 Fair CLR 42.8 28.4 57% 38 30 0.0
06 06:55 NW 9 10.00 Fair CLR 42.8 28.4 57% 38 29.99 0.0
06 06:35 NW 9 10.00 Fair CLR 42.8 28.4 57% 38 29.97 0.0
06 06:15 NW 7 10.00 Fair CLR 42.8 30.2 61% 39 29.96 0.0
06 05:55 NW 7 10.00 Fair CLR 41 30.2 66% 37 29.95 0.0
06 05:35 NW 7 10.00 Fair CLR 41 30.2 66% 37 29.95 0.0
06 05:15 NW 7 10.00 Fair CLR 42.8 30.2 61% 39 29.94 0.0
06 04:55 NW 6 10.00 Fair CLR 42.8 30.2 61% 40 29.95 0.0
06 04:35 NW 7 10.00 Fair CLR 41 30.2 66% 37 29.94 0.0
06 04:15 NW 6 10.00 Fair CLR 42.8 30.2 61% 40 29.94 0.0
06 03:55 NW 5 10.00 Fair CLR 44.6 30.2 57% 43 29.93 0.0
06 03:35 NW 6 10.00 Fair CLR 42.8 32 66% 40 29.92 0.0
06 03:15 NW 5 10.00 Fair CLR 42.8 32 66% 41 29.92 0.0
06 02:55 N 3 10.00 Fair CLR 44.6 30.2 57% 29.93 0.0
06 02:35 N 5 10.00 Fair CLR 44.6 30.2 57% 43 29.92 0.0
06 02:15 Calm 10.00 Fair CLR 44.6 30.2 57% 29.92 0.0
06 01:55 Calm 10.00 Fair CLR 44.6 30.2 57% 29.92 0.0
06 01:35 Calm 10.00 Fair CLR 46.4 28.4 50% 29.92 0.0
06 01:15 N 5 10.00 Fair CLR 44.6 30.2 57% 43 29.91 0.0
06 00:55 N 6 10.00 Fair CLR 48.2 28.4 46% 46 29.91 0.0
06 00:15 N 8 10.00 Fair CLR 48.2 28.4 46% 45 29.9 0.0
05 23:55 N 7 10.00 Fair CLR 48.2 28.4 46% 46 29.89 0.0
05 23:35 N 10 10.00 A Few Clouds FEW120 50 28.4 43% 46 29.88 0.0
05 23:15 N 12 10.00 Partly Cloudy SCT120 51.8 28.4 41% 29.88 0.0
05 22:55 N 10 10.00 Fair CLR 51.8 30.2 44% 29.87 0.0
05 22:35 N 9 G 16 10.00 A Few Clouds FEW110 53.6 30.2 41% 29.88 0.0
05 22:15 N 8 10.00 Fair CLR 53.6 32 44% 29.87 0.0
05 21:55 NW 7 10.00 Fair CLR 53.6 32 44% 29.86 0.0
05 21:35 W 7 10.00 Fair CLR 51.8 33.8 50% 29.85 0.0
05 21:15 W 7 10.00 Fair CLR 51.8 35.6 54% 29.84 0.0
05 20:55 W 6 10.00 Fair CLR 53.6 35.6 51% 29.83 0.0
05 20:35 W 6 10.00 Fair CLR 53.6 35.6 51% 29.83 0.0
05 20:15 SW 6 10.00 Fair CLR 53.6 35.6 51% 29.82 0.0
05 19:55 SW 7 10.00 Fair CLR 55.4 33.8 44% 29.82 0.0
05 19:35 SW 6 10.00 Fair CLR 55.4 33.8 44% 29.81 0.0
05 19:15 SW 6 10.00 Fair CLR 57.2 33.8 41% 29.81 0.0
05 18:55 W 8 10.00 Fair CLR 57.2 32 39% 29.81 0.0
05 18:35 W 7 10.00 Fair CLR 57.2 32 39% 29.81 0.0
05 18:15 W 9 G 15 10.00 Fair CLR 59 32 36% 29.81 0.0
05 17:55 Vrbl 5 10.00 Fair CLR 59 30.2 34% 29.81 0.0
05 17:35 W 10 10.00 Fair CLR 57.2 30.2 36% 29.83 0.0
05 17:15 W 9 10.00 Fair CLR 57.2 30.2 36% 29.83 0.0
05 16:55 W 10 10.00 Fair CLR 57.2 30.2 36% 29.83 0.0
05 16:35 W 8 10.00 Fair CLR 57.2 30.2 36% 29.83 0.0
05 16:15 W 6 G 15 10.00 Fair CLR 57.2 28.4 33% 29.84 0.0
05 15:55 NW 6 G 13 10.00 Fair CLR 57.2 30.2 36% 29.84 0.0
05 15:35 NW 9 G 17 10.00 Fair CLR 57.2 28.4 33% 29.85 0.0
05 15:15 NW 8 G 16 10.00 Fair CLR 57.2 28.4 33% 29.85 0.0
05 14:35 W 10 G 16 10.00 Fair CLR 57.2 28.4 33% 29.86 0.0
05 14:15 NW 10 10.00 Fair CLR 57.2 28.4 33% 29.87 0.0
05 13:55 NW 10 G 17 10.00 Fair CLR 55.4 28.4 36% 29.87 0.0
05 13:35 NW 9 10.00 Fair CLR 55.4 28.4 36% 29.87 0.0
05 13:15 NW 13 10.00 Fair CLR 57.2 28.4 33% 29.88 0.0
05 12:55 NW 14 10.00 Fair CLR 57.2 30.2 36% 29.88 0.0
05 12:35 W 8 10.00 Fair CLR 55.4 28.4 36% 29.88 0.0
05 12:15 N 7 G 13 10.00 Fair CLR 55.4 28.4 36% 29.88 0.0
05 11:55 NW 7 G 18 10.00 Fair CLR 55.4 28.4 36% 29.88 0.0
05 11:35 NW 8 10.00 Fair CLR 55.4 28.4 36% 29.88 0.0
05 11:15 NW 10 10.00 Fair CLR 55.4 28.4 36% 29.87 0.0
05 10:35 N 9 10.00 Fair CLR 53.6 32 44% 29.86 0.0
05 10:15 N 9 10.00 Fair CLR 53.6 32 44% 29.86 0.0
05 09:55 N 8 10.00 Fair CLR 53.6 32 44% 29.85 0.0
05 09:35 NW 5 G 12 10.00 Fair CLR 51.8 32 47% 29.85 0.0
05 09:15 Vrbl 6 10.00 Fair CLR 51.8 32 47% 29.84 0.0
05 08:55 Vrbl 5 10.00 Fair CLR 51.8 32 47% 29.84 0.0
05 08:35 Calm 10.00 Fair CLR 50 33.8 54% 29.83 0.0
05 08:15 Calm 10.00 Fair CLR 50 37.4 62% 29.85 0.0
05 07:55 SW 3 10.00 Fair CLR 48.2 39.2 71% 29.86 0.0
05 07:35 Calm 10.00 Fair CLR 46.4 41 82% 29.86 0.0
05 07:15 W 5 10.00 Fair CLR 46.4 41 82% 45 29.88 0.0
05 06:55 W 3 10.00 Fair CLR 46.4 41 82% 29.86 0.0
05 06:35 SW 5 10.00 Partly Cloudy FEW080 SCT090 SCT110 46.4 39.2 76% 45 29.86 0.0
05 06:15 Calm 10.00 Overcast FEW049 BKN085 OVC100 46.4 39.2 76% 29.85 0.0
05 05:55 SW 6 8.00 Overcast FEW045 BKN055 OVC080 46.4 39.2 76% 44 29.85 0.0
05 05:35 Calm 10.00 Overcast FEW031 BKN047 OVC085 48.2 35.6 62% 29.82 0.0
05 05:15 NE 6 10.00 Mostly Cloudy FEW027 SCT033 BKN060 48.2 32 54% 46 29.78 0.0
05 04:55 NW 9 10.00 Overcast FEW046 BKN075 OVC090 50 30.2 47% 47 29.82 0.0
05 04:35 N 12 G 24 10.00 Overcast FEW046 FEW055 OVC090 50 28.4 43% 46 29.8 0.0
05 04:15 NW 10 G 16 10.00 Mostly Cloudy BKN095 BKN120 51.8 28.4 41% 29.79 0.0
05 03:55 N 10 10.00 Mostly Cloudy BKN100 BKN120 51.8 28.4 41% 29.78 0.0
05 03:35 NW 9 10.00 Overcast OVC100 51.8 30.2 44% 29.78 0.0
05 03:15 NW 8 10.00 Overcast OVC100 51.8 30.2 44% 29.78 0.0
05 02:55 N 10 10.00 Overcast OVC100 51.8 30.2 44% 29.76 0.0
05 02:35 NW 7 10.00 Mostly Cloudy BKN100 51.8 32 47% 29.78 0.0
05 02:15 NW 6 10.00 A Few Clouds FEW095 50 32 50% 48 29.78 0.0
05 01:55 N 8 10.00 Fair CLR 51.8 32 47% 29.75 0.0
05 01:35 N 9 G 17 10.00 Fair CLR 53.6 32 44% 29.74 0.0
05 01:15 N 16 10.00 Fair CLR 53.6 33.8 47% 29.73 0.0
05 00:55 N 10 10.00 Fair CLR 53.6 33.8 47% 29.7 0.0
05 00:35 N 14 G 21 10.00 Fair CLR 55.4 33.8 44% 29.7 0.0
05 00:15 NW 13 10.00 Fair CLR 55.4 33.8 44% 29.67 0.0
04 23:55 NW 9 10.00 Fair CLR 55.4 33.8 44% 29.66 0.0
04 23:35 NW 8 10.00 Fair CLR 55.4 33.8 44% 29.67 0.0
04 23:15 N 9 10.00 Fair CLR 57.2 33.8 41% 29.67 0.0
04 22:55 N 8 G 15 10.00 Fair CLR 59 32 36% 29.67 0.0
04 22:35 N 9 10.00 Fair CLR 59 33.8 39% 29.67 0.0
04 22:15 N 10 10.00 Fair CLR 60.8 33.8 36% 29.67 0.0
04 21:55 N 10 10.00 Fair CLR 60.8 33.8 36% 29.66 0.0
04 21:35 N 14 10.00 Fair CLR 62.6 33.8 34% 29.64 0.0
04 21:15 N 14 10.00 Fair CLR 62.6 35.6 37% 29.63 0.0
04 20:55 N 15 10.00 Fair CLR 64.4 37.4 37% 29.61 0.0
04 20:35 N 18 G 25 10.00 Fair CLR 66.2 37.4 35% 29.59 0.0
04 20:15 N 20 10.00 A Few Clouds FEW110 68 39.2 35% 29.57 0.0
04 19:55 N 16 10.00 Fair CLR 69.8 42.8 38% 29.55 0.0
04 19:35 NW 10 10.00 Fair CLR 71.6 51.8 50% 29.52 0.0
04 19:15 NW 7 10.00 A Few Clouds FEW110 71.6 53.6 53% 29.5 0.0
04 18:55 W 9 10.00 Mostly Cloudy BKN100 71.6 53.6 53% 29.5 0.0
04 18:35 SW 8 10.00 Overcast BKN100 OVC120 69.8 51.8 53% 29.49 0.0
04 18:15 S 6 10.00 Mostly Cloudy BKN100 68 57.2 69% 29.48 0.0
04 17:55 N 9 7.00 Mostly Cloudy FEW055 SCT100 BKN110 68 55.4 64% 29.5 0.0 0.01
04 17:35 W 9 9.00 Mostly Cloudy FEW055 SCT080 BKN110 68 55.4 64% 29.52 0.0
04 17:15 W 8 10.00 Mostly Cloudy FEW070 BKN095 71.6 50 47% 29.51 0.0
04 16:55 NW 18 G 28 10.00 Mostly Cloudy SCT090 BKN120 77 46.4 34% 78 29.52 0.0
04 16:35 W 20 10.00 Mostly Cloudy SCT095 BKN120 78.8 44.6 30% 79 29.49 0.0
04 16:15 SW 10 G 23 10.00 A Few Clouds FEW095 80.6 46.4 30% 80 29.49 0.0
04 15:55 SW 16 G 29 10.00 A Few Clouds FEW095 82.4 44.6 26% 81 29.49 0.0
04 15:35 W 16 G 22 10.00 A Few Clouds FEW095 82.4 46.4 28% 81 29.5 0.0
04 15:15 SW 12 G 24 10.00 Fair CLR 82.4 46.4 28% 81 29.51 0.0
04 14:55 W 14 G 21 10.00 A Few Clouds FEW100 FEW120 82.4 44.6 26% 81 29.52 0.0
04 14:35 W 17 G 26 10.00 Partly Cloudy SCT095 SCT120 84.2 42.8 23% 82 29.52 0.0
04 14:15 W 14 G 21 10.00 Partly Cloudy SCT090 82.4 42.8 25% 80 29.52 0.0
04 13:55 W 14 10.00 Fair CLR 82.4 42.8 25% 80 29.53 0.0
04 13:35 W 14 G 23 10.00 Fair CLR 82.4 42.8 25% 80 29.53 0.0
04 13:15 SW 14 G 20 10.00 Fair CLR 82.4 44.6 26% 81 29.53 0.0
04 12:55 SW 15 G 24 10.00 Fair CLR 80.6 44.6 28% 79 29.53 0.0
04 12:35 SW 17 10.00 Fair CLR 80.6 48.2 32% 80 29.54 0.0
04 12:15 SW 15 G 22 10.00 Fair CLR 78.8 50 37% 79 29.54 0.0
04 11:55 SW 13 G 20 10.00 Fair CLR 78.8 50 37% 79 29.55 0.0
04 11:35 SW 13 G 18 10.00 Fair CLR 78.8 50 37% 79 29.55 0.0
04 11:15 SW 16 G 23 10.00 Fair CLR 77 50 39% 78 29.56 0.0
04 10:55 SW 14 G 22 10.00 Fair CLR 75.2 50 41% 78 29.56 0.0
04 10:35 SW 15 G 23 10.00 Fair CLR 75.2 48.2 39% 77 29.57 0.0
04 10:15 SW 14 G 21 9.00 Fair CLR 75.2 48.2 39% 77 29.58 0.0
04 09:55 S 12 10.00 Fair CLR 71.6 48.2 44% 29.58 0.0
04 09:35 S 13 10.00 Fair CLR 71.6 48.2 44% 29.59 0.0
04 09:15 S 13 10.00 Fair CLR 68 48.2 49% 29.6 0.0
04 08:55 S 8 10.00 Fair CLR 66.2 48.2 52% 29.6 0.0
04 08:35 S 6 10.00 Fair CLR 62.6 46.4 56% 29.61 0.0
04 08:15 S 3 10.00 Fair CLR 59 46.4 63% 29.63 0.0
04 07:55 Calm 10.00 Fair CLR 55.4 48.2 77% 29.63 0.0
04 07:35 Calm 10.00 Fair CLR 51.8 46.4 82% 29.64 0.0
04 06:55 Calm 10.00 Fair CLR 44.6 41 87% 29.65 0.0
04 06:35 Calm 10.00 Fair CLR 42.8 41 93% 29.64 0.0
04 06:15 Calm 10.00 Fair CLR 42.8 39.2 87% 29.65 0.0
04 05:55 Calm 10.00 Fair CLR 41 39.2 93% 29.65 0.0
04 05:35 Calm 10.00 Fair CLR 42.8 41 93% 29.65 0.0
04 05:15 Calm 10.00 Fair CLR 42.8 39.2 87% 29.65 0.0
04 04:55 Calm 10.00 Fair CLR 42.8 39.2 87% 29.66 0.0
04 04:35 Calm 10.00 Fair CLR 44.6 41 87% 29.67 0.0
04 04:15 Calm 10.00 Fair CLR 44.6 39.2 81% 29.67 0.0
04 03:55 Calm 10.00 Fair CLR 44.6 41 87% 29.67 0.0
04 03:35 Calm 10.00 Fair CLR 46.4 41 82% 29.68 0.0
04 03:15 Calm 10.00 Fair CLR 44.6 41 87% 29.68 0.0
04 02:55 Calm 10.00 Fair CLR 50 39.2 67% 29.69 0.0
04 02:35 S 5 10.00 Fair CLR 53.6 39.2 58% 29.69 0.0
04 02:15 S 7 10.00 Fair CLR 48.2 41 76% 46 29.7 0.0
04 01:55 S 6 10.00 Fair CLR 50 39.2 67% 48 29.71 0.0
04 01:35 S 5 10.00 Fair CLR 50 41 71% 49 29.7 0.0
04 01:15 Calm 10.00 Fair CLR 51.8 41 67% 29.71 0.0
04 00:55 Calm 10.00 Fair CLR 51.8 41 67% 29.72 0.0
04 00:35 SW 3 10.00 Fair CLR 55.4 39.2 55% 29.73 0.0
04 00:15 SW 5 10.00 Fair CLR 57.2 39.2 51% 29.73 0.0
03 23:55 SW 5 10.00 Fair CLR 57.2 39.2 51% 29.73 0.0
03 23:35 Calm 10.00 Fair CLR 55.4 39.2 55% 29.74 0.0
03 23:15 W 5 10.00 Fair CLR 57.2 39.2 51% 29.74 0.0
03 22:55 SW 8 10.00 Fair CLR 59 41 51% 29.74 0.0
03 22:35 SW 9 10.00 Fair CLR 59 41 51% 29.74 0.0
03 22:15 SW 6 10.00 Fair CLR 59 41 51% 29.75 0.0
03 21:55 SW 8 10.00 Fair CLR 62.6 41 45% 29.74 0.0
03 21:35 SW 9 10.00 Fair CLR 62.6 41 45% 29.74 0.0
03 21:15 SW 8 10.00 Fair CLR 64.4 41 43% 29.74 0.0
03 20:55 SW 9 10.00 Fair CLR 64.4 41 43% 29.73 0.0
03 20:35 SW 7 10.00 Fair CLR 64.4 37.4 37% 29.73 0.0
03 20:15 SW 9 10.00 Fair CLR 66.2 35.6 32% 29.72 0.0
03 19:55 SW 8 10.00 Fair CLR 68 35.6 30% 29.72 0.0
03 19:35 W 7 10.00 Fair CLR 69.8 35.6 29% 29.72 0.0
03 19:15 W 9 G 17 10.00 Fair CLR 71.6 39.2 31% 29.72 0.0
03 18:55 SW 13 G 22 10.00 Fair CLR 73.4 41 31% 29.71 0.0
03 18:35 SW 14 G 22 10.00 Fair CLR 73.4 39.2 29% 29.71 0.0
03 18:15 W 17 G 26 10.00 Fair CLR 73.4 41 31% 29.71 0.0
03 17:55 SW 18 10.00 Fair CLR 73.4 41 31% 29.72 0.0
03 17:35 SW 21 G 29 10.00 Fair and Breezy CLR 73.4 42.8 33% 29.72 0.0
03 17:15 SW 17 G 29 10.00 Fair CLR 73.4 42.8 33% 29.72 0.0
03 16:55 W 18 G 26 10.00 Fair CLR 73.4 42.8 33% 29.73 0.0
03 16:35 W 23 G 29 10.00 Fair and Breezy CLR 71.6 44.6 38% 29.73 0.0
03 16:15 SW 16 G 25 10.00 Fair CLR 71.6 42.8 36% 29.73 0.0
03 15:55 SW 21 G 29 10.00 Fair and Breezy CLR 73.4 44.6 36% 29.74 0.0
03 15:35 SW 17 10.00 Fair CLR 73.4 42.8 33% 29.74 0.0
03 15:15 SW 13 G 22 10.00 Fair CLR 71.6 42.8 36% 29.75 0.0
03 14:55 W 16 10.00 Fair CLR 71.6 42.8 36% 29.76 0.0
03 14:35 SW 14 G 23 10.00 Fair CLR 71.6 42.8 36% 29.76 0.0
03 14:15 W 16 G 26 10.00 Fair CLR 71.6 41 33% 29.76 0.0
03 13:55 W 21 G 29 10.00 Fair and Breezy CLR 71.6 41 33% 29.78 0.0
03 13:35 SW 18 G 29 9.00 Fair CLR 69.8 42.8 38% 29.78 0.0
03 13:15 SW 17 G 30 10.00 Fair CLR 69.8 41 35% 29.78 0.0
03 12:55 SW 20 G 31 10.00 Fair CLR 68 41 38% 29.79 0.0
Date Time (cdt) Wind (mph) Vis. (mi.) Weather Sky Cond. Air Dwpt Max. Min. Relative Humidity Wind Chill (°F) Heat Index (°F) altimeter (in) sea level (mb) 1 hr 3 hr 6 hr
6 hour
Temperature (ºF) Pressure Precipitation (in)